Whippany, NJ (07981)

8:58 AM EDT on July 06, 2015 (GMT -0400)
Hanover Township | | Change Station
CLOSE
Current Station
Personal Weather Station
Location: Hanover, NJ
Elevation: 262 ft
Nearby Weather Stations

Elev 262 ft 40.83 °N, 74.41 °W | Updated 12 minutes ago

Haze
Haze
79.0 °F
Feels Like 81 °F
N
2.2
Wind Variable Wind from South

Today
High -- | Low -- °F
--% Chance of Precip.
Yesterday
High -- | Low -- °F
Precip. -- in
5:32 AM 8:32 PM
Waning Gibbous, 75% visible
Pressure 30.17 in
Visibility 7.0 miles
Clouds Mostly Cloudy 25000 ft
Heat Index 81 °F
Dew Point 66 °F
Humidity 65%
Rainfall 0.00 in
Snow Depth Not available.
UV 2 out of 12
Pollen 3.90 out of 12
Air Quality Not available.
Flu Activity Not available.
METAR KMMU 061246Z 00000KT 7SM HZ BKN250 25/21 A3017

More Conditions Fewer Conditions

Pressure 30.17 in
Visibility 7.0 miles
Clouds Mostly Cloudy 25000 ft
Heat Index 81 °F
Dew Point 66 °F
Humidity 65%
Rainfall 0.00 in
Snow Depth Not available.
UV 2 out of 12
Pollen 3.90 out of 12
Air Quality Not available.
Flu Activity Not available.
METAR KMMU 061246Z 00000KT 7SM HZ BKN250 25/21 A3017

More Conditions Fewer Conditions

10-Day Weather Forecast

×

Almanac

Astronomy

Jul. 06, 2015 Rise Set
Actual Time
Civil Twilight
Nautical Twilight
Astronomical Twilight
Moon
Length of Visible Light
Length of Day
Tomorrow will be .
, % of the Moon is Illuminated

Today's Extremes

State Highs State Lows

Community

WunderPhotos

Upload Photos

1,835,548 photos uploaded!

WunderBlogs® & News

Nearby

Air Quality

  Air Quality AQ Index Pollutant
Not available.

Snow Depth

Station Depth Elevation

Earthquake Activity

City Distance Mag. Time & Date
Minimum magnitude displayed is 2.5.

Coastal Water Temperatures

Place Temperature

Stations

Nearby Weather Stations

Station Location Temp. Windchill Dew Point Humidity Wind Precip. Elev Updated Type